createdAt,value
2023-05-04T05:03:25.333Z,62.69
2023-05-04T05:04:25.379Z,62.67
2023-05-04T05:05:25.269Z,63.10
2023-05-04T05:06:26.249Z,63.61
2023-05-04T05:07:25.282Z,63.21
2023-05-04T05:08:25.241Z,63.09
2023-05-04T05:09:25.225Z,63.30
2023-05-04T05:10:25.260Z,63.62
2023-05-04T05:11:25.961Z,63.49
2023-05-04T05:12:25.911Z,63.51
2023-05-04T05:13:26.916Z,63.58
2023-05-04T05:14:26.556Z,64.00
2023-05-04T05:15:27.715Z,63.61
2023-05-04T05:16:27.349Z,63.71
2023-05-04T05:17:27.017Z,63.88
2023-05-04T05:18:29.493Z,63.67
2023-05-04T05:19:26.743Z,64.10
2023-05-04T05:20:26.658Z,63.51
2023-05-04T05:21:27.533Z,63.62
2023-05-04T05:22:27.469Z,63.25
2023-05-04T05:23:26.961Z,63.60
2023-05-04T05:24:27.839Z,63.86
2023-05-04T05:25:26.709Z,63.72
2023-05-04T05:26:25.732Z,63.39
2023-05-04T05:27:26.961Z,63.23
2023-05-04T05:28:26.828Z,63.41
2023-05-04T05:29:28.394Z,63.18
2023-05-04T05:30:25.948Z,62.99
2023-05-04T05:31:27.026Z,62.87
2023-05-04T05:32:27.554Z,62.79
2023-05-04T05:33:26.854Z,62.81
2023-05-04T05:34:26.425Z,63.94
2023-05-04T05:35:27.026Z,64.63
2023-05-04T05:36:27.059Z,64.44
2023-05-04T05:37:26.178Z,64.92
2023-05-04T05:38:26.340Z,64.91
2023-05-04T05:39:25.906Z,64.82
2023-05-04T05:40:25.807Z,64.88
2023-05-04T05:41:25.920Z,65.46
2023-05-04T05:43:45.117Z,64.94
2023-05-04T05:44:45.028Z,64.66
2023-05-04T05:45:44.860Z,64.24
2023-05-04T05:46:45.984Z,64.69
2023-05-04T05:47:46.020Z,64.23
2023-05-04T05:48:45.882Z,64.08
2023-05-04T05:49:46.432Z,63.91
2023-05-04T05:50:44.862Z,63.15
2023-05-04T05:51:45.853Z,62.94
2023-05-04T05:52:44.835Z,62.71
2023-05-04T05:53:45.863Z,63.08
2023-05-04T05:54:44.796Z,63.49
2023-05-04T05:55:45.782Z,63.76
2023-05-04T05:56:44.801Z,64.25
2023-05-04T05:57:44.779Z,64.22
2023-05-04T05:58:45.813Z,63.46
2023-05-04T05:59:44.807Z,64.03
2023-05-04T06:00:45.771Z,64.14
2023-05-04T06:01:45.934Z,64.26
2023-05-04T06:02:44.863Z,63.53
2023-05-04T06:03:44.953Z,64.03
2023-05-04T06:04:44.787Z,64.31
2023-05-04T06:05:45.773Z,63.50
2023-05-04T06:06:46.148Z,62.96
2023-05-04T06:07:46.680Z,62.61
2023-05-04T06:08:46.007Z,62.57
2023-05-04T06:09:44.870Z,62.57
2023-05-04T06:10:44.921Z,62.41
2023-05-04T06:11:45.080Z,63.05
2023-05-04T06:12:44.977Z,62.57
2023-05-04T06:13:46.022Z,62.40
2023-05-04T06:14:45.059Z,61.56
2023-05-04T06:15:45.053Z,61.37
2023-05-04T06:16:46.241Z,61.22
2023-05-04T06:17:46.566Z,61.22
2023-05-04T06:18:46.157Z,61.05
2023-05-04T06:19:47.579Z,61.32
2023-05-04T06:20:46.709Z,61.82
2023-05-04T06:23:04.343Z,61.68
2023-05-04T06:29:21.222Z,61.16
2023-05-04T06:30:21.248Z,60.95
2023-05-04T06:31:21.336Z,60.54
2023-05-04T06:32:22.275Z,60.53
2023-05-04T06:33:22.213Z,61.42
2023-05-04T06:35:41.338Z,62.56
2023-05-04T06:38:01.124Z,62.05
2023-05-04T06:40:35.727Z,61.76
2023-05-04T06:41:35.728Z,62.87
2023-05-04T06:42:36.666Z,63.39
2023-05-04T06:43:37.058Z,63.26
2023-05-04T06:44:35.945Z,63.65
2023-05-04T06:45:39.650Z,62.63
2023-05-04T06:46:48.758Z,62.79
2023-05-04T06:48:55.864Z,61.79
2023-05-04T06:49:57.264Z,61.76
2023-05-04T06:57:31.454Z,61.46
2023-05-04T07:00:56.674Z,62.55
2023-05-04T07:03:34.926Z,63.69
2023-05-04T07:05:49.687Z,62.33
2023-05-04T07:06:50.721Z,61.72
2023-05-04T07:07:51.446Z,61.53
2023-05-04T07:10:10.195Z,60.76
2023-05-04T07:12:47.408Z,59.88
2023-05-04T07:16:28.818Z,60.64
2023-05-04T07:18:45.589Z,59.95
2023-05-04T07:19:46.003Z,59.54
2023-05-04T07:20:47.185Z,59.19
2023-05-04T07:21:46.205Z,58.90
2023-05-04T07:24:05.135Z,58.45
2023-05-04T07:26:27.420Z,58.41
2023-05-04T07:27:24.599Z,59.19
2023-05-04T07:28:25.358Z,60.17
2023-05-04T07:29:29.573Z,59.72
2023-05-04T07:30:24.916Z,59.22
2023-05-04T07:31:31.012Z,59.48
2023-05-04T07:33:46.095Z,59.22
2023-05-04T07:34:48.789Z,58.71
2023-05-04T07:35:46.031Z,58.72
2023-05-04T07:36:44.994Z,58.59
2023-05-04T07:37:45.473Z,58.92
2023-05-04T07:47:51.867Z,58.95
2023-05-04T07:51:11.763Z,59.45
2023-05-04T07:52:02.969Z,58.82
2023-05-04T07:53:03.780Z,58.27
2023-05-04T07:54:02.751Z,58.83
2023-05-04T07:55:02.767Z,58.33
2023-05-04T07:56:01.981Z,59.19
2023-05-04T07:57:02.746Z,59.10
2023-05-04T07:58:01.786Z,58.11
2023-05-04T07:59:02.698Z,58.59
2023-05-04T08:00:03.031Z,58.14
2023-05-04T08:01:02.735Z,58.45
2023-05-04T08:02:01.787Z,58.42
2023-05-04T08:03:02.911Z,57.97
2023-05-04T08:05:20.784Z,57.56
2023-05-04T08:07:41.377Z,56.72
2023-05-04T08:08:41.347Z,56.45
2023-05-04T08:09:40.358Z,55.58
2023-05-04T08:10:41.317Z,56.34
2023-05-04T08:11:41.382Z,56.06
2023-05-04T08:12:41.378Z,56.14
2023-05-04T08:13:41.297Z,55.78
2023-05-04T08:15:59.350Z,55.82
2023-05-04T08:18:22.685Z,55.37
2023-05-04T08:19:19.535Z,55.53
2023-05-04T08:20:18.833Z,55.45
2023-05-04T08:21:18.508Z,55.05
2023-05-04T08:22:19.526Z,54.98
2023-05-04T08:23:19.487Z,55.07
2023-05-04T08:25:38.464Z,55.06
2023-05-04T08:26:47.308Z,55.53
2023-05-04T08:27:39.014Z,55.92
2023-05-04T08:28:38.990Z,54.93
2023-05-04T08:29:38.075Z,51.58
2023-05-04T08:30:39.025Z,52.70
2023-05-04T08:34:16.813Z,52.57
2023-05-04T08:35:17.701Z,53.18
2023-05-04T08:36:17.937Z,53.31
2023-05-04T08:37:16.590Z,52.91
2023-05-04T08:38:16.603Z,53.16
2023-05-04T08:39:17.601Z,52.57
2023-05-04T08:40:17.576Z,53.16
2023-05-04T08:41:16.565Z,52.41
2023-05-04T08:42:17.522Z,53.08
2023-05-04T08:44:36.775Z,52.19
2023-05-04T08:46:57.250Z,51.68
2023-05-04T08:48:06.350Z,51.76
2023-05-04T08:50:39.852Z,52.11
2023-05-04T08:51:52.077Z,53.29
2023-05-04T08:52:39.589Z,53.80
2023-05-04T08:53:39.565Z,53.45
2023-05-04T08:54:39.690Z,53.10
2023-05-04T08:55:39.565Z,53.29
2023-05-04T08:56:39.895Z,52.51
2023-05-04T08:57:39.548Z,52.24
2023-05-04T08:58:38.555Z,52.71
2023-05-04T08:59:39.522Z,51.73
2023-05-04T09:00:39.601Z,51.40
2023-05-04T09:01:39.543Z,51.10
2023-05-04T09:02:38.512Z,50.55
2023-05-04T09:03:39.548Z,50.11
2023-05-04T09:04:39.494Z,51.45
2023-05-04T09:05:38.500Z,51.83
2023-05-04T09:06:39.540Z,51.57
2023-05-04T09:07:39.450Z,50.68
2023-05-04T09:08:38.465Z,50.56
2023-05-04T09:09:38.540Z,50.32
2023-05-04T09:10:39.571Z,50.52
2023-05-04T09:11:38.450Z,49.93
2023-05-04T09:12:39.485Z,49.81
2023-05-04T09:13:39.483Z,49.80
2023-05-04T09:14:40.377Z,50.26
2023-05-04T09:15:39.434Z,49.97
2023-05-04T09:16:42.978Z,49.47
2023-05-04T09:17:50.972Z,49.42
2023-05-04T09:18:39.428Z,49.73
2023-05-04T09:20:57.704Z,49.71
2023-05-04T09:21:58.564Z,49.28
2023-05-04T09:22:58.469Z,50.10
2023-05-04T09:23:58.441Z,49.60
2023-05-04T09:24:58.386Z,48.92
2023-05-04T09:25:58.588Z,49.18
2023-05-04T09:26:57.482Z,49.19
2023-05-04T09:27:58.610Z,49.27
2023-05-04T09:28:57.374Z,48.63
2023-05-04T09:29:58.385Z,48.22
2023-05-04T09:30:57.349Z,48.22
2023-05-04T09:31:58.341Z,47.38
2023-05-04T09:32:57.464Z,47.41
2023-05-04T09:33:58.320Z,47.43
2023-05-04T09:34:57.389Z,47.16
2023-05-04T09:35:58.366Z,47.40
2023-05-04T09:36:58.323Z,47.62
2023-05-04T09:37:58.355Z,47.65
2023-05-04T09:38:58.281Z,47.15
2023-05-04T09:39:57.334Z,47.29
2023-05-04T09:40:57.355Z,47.41
2023-05-04T09:41:58.375Z,47.31
2023-05-04T09:42:57.357Z,47.32
2023-05-04T09:43:58.373Z,46.94
2023-05-04T09:44:58.407Z,47.10
2023-05-04T09:45:57.555Z,47.10
2023-05-04T09:46:58.526Z,47.07
2023-05-04T09:47:58.569Z,47.11
2023-05-04T09:48:58.508Z,46.96
2023-05-04T09:49:58.547Z,46.91
2023-05-04T09:50:58.542Z,47.33
2023-05-04T09:51:59.024Z,47.25
2023-05-04T09:52:58.583Z,46.22
2023-05-04T09:53:57.758Z,46.17
2023-05-04T09:54:57.698Z,45.57
2023-05-04T09:55:58.638Z,45.87
2023-05-04T09:56:58.796Z,45.92
2023-05-04T09:57:58.824Z,46.22
2023-05-04T09:58:57.876Z,46.30
2023-05-04T09:59:57.932Z,46.24
2023-05-04T10:00:58.965Z,45.21
2023-05-04T10:02:00.416Z,45.44
2023-05-04T10:02:59.154Z,45.30
2023-05-04T10:03:59.064Z,44.96
2023-05-04T10:04:59.077Z,44.93
2023-05-04T10:05:59.221Z,44.73
2023-05-04T10:06:59.045Z,44.65
2023-05-04T10:07:59.008Z,44.62
2023-05-04T10:08:58.022Z,44.48
2023-05-04T10:09:57.999Z,44.50
2023-05-04T10:10:58.012Z,44.62
2023-05-04T10:12:00.586Z,44.50
2023-05-04T10:12:58.989Z,44.53
2023-05-04T10:13:58.938Z,44.80
2023-05-04T10:14:58.938Z,45.29
2023-05-04T10:15:59.001Z,45.46
2023-05-04T10:16:58.936Z,45.45
2023-05-04T10:17:58.946Z,45.03
2023-05-04T10:18:57.930Z,44.05
2023-05-04T10:19:58.900Z,44.13
2023-05-04T10:20:58.898Z,44.22
2023-05-04T10:21:57.922Z,44.30
2023-05-04T10:22:57.902Z,44.68
2023-05-04T10:23:57.892Z,46.53
2023-05-04T10:24:58.887Z,45.12
2023-05-04T10:25:58.873Z,43.46
2023-05-04T10:26:58.838Z,43.84
2023-05-04T10:27:57.853Z,43.39
2023-05-04T10:28:58.853Z,43.88
2023-05-04T10:29:57.837Z,44.18
2023-05-04T10:30:58.832Z,43.67
2023-05-04T10:31:58.941Z,42.99
2023-05-04T10:32:58.899Z,42.37
2023-05-04T10:33:58.815Z,42.12
2023-05-04T10:34:57.795Z,42.49
2023-05-04T10:35:58.782Z,42.32
2023-05-04T10:36:58.784Z,42.02
2023-05-04T10:37:58.859Z,41.49
2023-05-04T10:38:58.788Z,42.25
2023-05-04T10:39:58.778Z,41.36
2023-05-04T10:40:57.776Z,41.44
2023-05-04T10:41:58.768Z,39.65
2023-05-04T10:42:59.035Z,40.61
2023-05-04T10:43:58.740Z,40.41
2023-05-04T10:44:58.746Z,42.30
2023-05-04T10:45:57.775Z,41.91
2023-05-04T10:46:59.827Z,39.65
2023-05-04T10:47:58.075Z,39.01
2023-05-04T10:48:58.729Z,38.63
2023-05-04T10:49:57.701Z,38.44
2023-05-04T10:50:58.695Z,38.34
2023-05-04T10:51:58.686Z,37.81
2023-05-04T10:52:59.504Z,37.77
2023-05-04T10:53:59.265Z,37.62
2023-05-04T10:54:58.929Z,37.27
2023-05-04T10:55:58.802Z,38.04
2023-05-04T10:56:58.869Z,37.55
2023-05-04T10:57:58.864Z,37.48
2023-05-04T10:58:57.886Z,36.67
2023-05-04T10:59:58.950Z,36.64
2023-05-04T11:00:58.022Z,38.11
2023-05-04T11:01:58.965Z,37.35
2023-05-04T11:02:58.118Z,37.54
2023-05-04T11:03:59.057Z,37.56
2023-05-04T11:04:58.042Z,38.02
2023-05-04T11:05:59.082Z,36.88
2023-05-04T11:06:59.117Z,36.95
2023-05-04T11:07:59.935Z,37.39
2023-05-04T11:08:58.167Z,37.10
2023-05-04T11:09:58.189Z,36.49
2023-05-04T11:10:59.224Z,36.46
2023-05-04T11:11:59.296Z,36.33
2023-05-04T11:12:59.352Z,36.16
2023-05-04T11:13:59.481Z,36.54
2023-05-04T11:14:59.436Z,36.54
2023-05-04T11:15:59.543Z,38.03
2023-05-04T11:16:59.471Z,38.28
2023-05-04T11:17:59.556Z,38.82
2023-05-04T11:18:59.555Z,37.13
2023-05-04T11:19:59.547Z,37.31
2023-05-04T11:20:59.596Z,37.23
2023-05-04T11:21:58.722Z,37.45
2023-05-04T11:22:58.719Z,37.25
2023-05-04T11:23:59.732Z,36.39
2023-05-04T11:24:58.746Z,36.57
2023-05-04T11:25:58.795Z,36.85
2023-05-04T11:26:58.827Z,37.60
2023-05-04T11:27:59.856Z,38.31
2023-05-04T11:28:59.878Z,38.32
2023-05-04T11:29:58.969Z,37.87
2023-05-04T11:30:59.981Z,37.04
2023-05-04T11:31:59.033Z,36.10
2023-05-04T11:32:59.135Z,36.69
2023-05-04T11:33:59.081Z,36.52
2023-05-04T11:34:59.135Z,36.05
2023-05-04T11:35:59.105Z,36.62
2023-05-04T11:37:00.214Z,36.38
2023-05-04T11:37:59.583Z,36.43
2023-05-04T11:39:00.254Z,36.87
2023-05-04T11:39:59.212Z,36.74
2023-05-04T11:41:00.240Z,36.86
2023-05-04T11:41:59.254Z,36.32
2023-05-04T11:42:59.203Z,36.08
2023-05-04T11:44:00.260Z,35.77
2023-05-04T11:45:00.287Z,35.66
2023-05-04T11:45:59.362Z,35.74
2023-05-04T11:46:59.342Z,35.24
2023-05-04T11:47:59.506Z,35.59
2023-05-04T11:48:59.367Z,35.07
2023-05-04T11:50:00.485Z,35.89
2023-05-04T11:51:00.515Z,35.38
2023-05-04T11:52:00.570Z,34.95
2023-05-04T11:52:59.655Z,34.98
2023-05-04T11:53:59.593Z,35.95
2023-05-04T11:55:00.610Z,35.40
2023-05-04T11:56:00.039Z,35.57
2023-05-04T11:57:00.864Z,34.75
2023-05-04T11:57:59.729Z,34.54
2023-05-04T11:58:59.779Z,34.65
2023-05-04T12:00:00.708Z,34.59
2023-05-04T12:01:00.775Z,34.29
2023-05-04T12:02:00.806Z,34.03
2023-05-04T12:03:00.984Z,34.37
2023-05-04T12:03:59.891Z,34.00
2023-05-04T12:04:59.896Z,34.09
2023-05-04T12:05:59.974Z,33.73
2023-05-04T12:07:01.740Z,33.40
2023-05-04T12:08:01.038Z,33.73
2023-05-04T12:09:01.013Z,33.72
2023-05-04T12:10:00.094Z,33.48
2023-05-04T12:11:00.068Z,33.69
2023-05-04T12:12:00.147Z,33.83
2023-05-04T12:13:01.232Z,33.17
2023-05-04T12:14:00.180Z,33.02
2023-05-04T12:15:01.231Z,33.06
2023-05-04T12:16:00.274Z,32.39
2023-05-04T12:17:01.282Z,31.25
2023-05-04T12:18:02.500Z,31.00
2023-05-04T12:19:00.260Z,31.13
2023-05-04T12:20:00.288Z,31.25
2023-05-04T12:21:02.803Z,31.05
2023-05-04T12:22:01.300Z,30.16
2023-05-04T12:23:00.234Z,30.69
2023-05-04T12:24:01.210Z,30.30
2023-05-04T12:25:00.285Z,29.22
2023-05-04T12:26:00.225Z,29.58
2023-05-04T12:27:00.205Z,29.73
2023-05-04T12:28:00.173Z,29.66
2023-05-04T12:29:00.149Z,28.98
2023-05-04T12:30:00.211Z,29.38
2023-05-04T12:31:00.200Z,29.28
2023-05-04T12:32:00.256Z,28.57
2023-05-04T12:33:00.298Z,28.72
2023-05-04T12:34:00.297Z,28.13
2023-05-04T12:35:00.212Z,27.44
2023-05-04T12:36:00.188Z,27.60
2023-05-04T12:37:00.151Z,26.50
2023-05-04T12:38:01.183Z,26.79
2023-05-04T12:39:00.162Z,26.88
2023-05-04T12:40:01.196Z,27.28
2023-05-04T12:41:01.172Z,26.66
2023-05-04T12:42:01.076Z,26.33
2023-05-04T12:43:01.153Z,26.27
2023-05-04T12:44:00.081Z,25.86
2023-05-04T12:45:01.092Z,25.38
2023-05-04T12:46:01.156Z,26.34
2023-05-04T12:47:01.122Z,26.55
2023-05-04T12:48:00.236Z,25.31
2023-05-04T12:49:00.025Z,25.80
2023-05-04T12:50:00.041Z,26.01
2023-05-04T12:51:00.081Z,25.06
2023-05-04T12:52:00.080Z,25.26
2023-05-04T12:53:00.014Z,25.46
2023-05-04T12:54:00.050Z,26.56
2023-05-04T12:55:01.108Z,26.32
2023-05-04T12:56:00.204Z,26.80
2023-05-04T12:57:00.113Z,25.87
2023-05-04T12:58:01.161Z,25.62
2023-05-04T12:59:00.134Z,25.60
2023-05-04T13:00:01.232Z,25.58
2023-05-04T13:01:00.297Z,26.07
2023-05-04T13:02:00.249Z,26.71
2023-05-04T13:03:00.494Z,26.53
2023-05-04T13:04:01.429Z,25.22
2023-05-04T13:05:00.378Z,26.38
2023-05-04T13:06:00.529Z,26.03
2023-05-04T13:07:01.445Z,26.01
2023-05-04T13:08:00.509Z,25.78
2023-05-04T13:09:00.498Z,25.41
2023-05-04T13:10:00.509Z,24.64
2023-05-04T13:11:01.612Z,25.16
2023-05-04T13:12:00.619Z,25.62
2023-05-04T13:13:01.773Z,25.27
2023-05-04T13:14:00.757Z,25.37
2023-05-04T13:15:00.733Z,25.97
2023-05-04T13:16:00.866Z,25.17
2023-05-04T13:17:01.898Z,24.30
2023-05-04T13:18:00.883Z,24.91
2023-05-04T13:19:00.904Z,24.60
2023-05-04T13:20:00.935Z,23.75
2023-05-04T13:21:00.957Z,24.53
2023-05-04T13:22:01.104Z,24.77
2023-05-04T13:23:01.232Z,24.44
2023-05-04T13:24:01.098Z,24.30
2023-05-04T13:25:01.141Z,25.22
2023-05-04T13:26:02.173Z,24.69
2023-05-04T13:27:02.306Z,25.23
2023-05-04T13:28:01.217Z,26.15
2023-05-04T13:29:01.257Z,26.38
2023-05-04T13:30:01.339Z,26.44
2023-05-04T13:31:01.378Z,26.67
2023-05-04T13:32:02.508Z,26.59
2023-05-04T13:33:07.702Z,26.68
2023-05-04T13:34:02.372Z,25.49
2023-05-04T13:35:01.316Z,25.16
2023-05-04T13:36:01.329Z,25.95
2023-05-04T13:37:02.402Z,25.83
2023-05-04T13:38:02.372Z,26.08
2023-05-04T13:39:01.364Z,25.19
2023-05-04T13:40:02.345Z,25.61
2023-05-04T13:41:01.274Z,25.44
2023-05-04T13:42:01.360Z,26.33
2023-05-04T13:43:01.341Z,26.54
2023-05-04T13:44:01.315Z,26.86
2023-05-04T13:45:01.299Z,26.86
2023-05-04T13:46:02.280Z,26.39
2023-05-04T13:47:01.378Z,26.81
2023-05-04T13:48:01.274Z,26.36
2023-05-04T13:49:02.229Z,26.35
2023-05-04T13:50:02.255Z,26.21
2023-05-04T13:51:01.285Z,26.73
2023-05-04T13:52:01.265Z,25.79
2023-05-04T13:53:01.217Z,25.71
2023-05-04T13:54:02.693Z,25.65
2023-05-04T13:55:01.255Z,26.38
2023-05-04T13:56:02.249Z,25.78
2023-05-04T13:57:01.249Z,26.26
2023-05-04T13:58:01.244Z,25.91
2023-05-04T13:59:02.230Z,25.31
2023-05-04T14:00:06.661Z,25.28
2023-05-04T14:01:02.183Z,26.48
2023-05-04T14:02:01.240Z,24.79
2023-05-04T14:03:01.293Z,25.54
2023-05-04T14:04:02.206Z,25.73
2023-05-04T14:05:01.202Z,26.42
2023-05-04T14:06:01.156Z,25.80
2023-05-04T14:07:02.089Z,25.39
2023-05-04T14:08:02.097Z,24.92
2023-05-04T14:09:02.216Z,26.17
2023-05-04T14:10:01.124Z,24.48
2023-05-04T14:11:01.074Z,25.69
2023-05-04T14:12:01.109Z,25.98
2023-05-04T14:13:01.109Z,26.18
2023-05-04T14:14:02.199Z,26.08
2023-05-04T14:15:01.281Z,25.68
2023-05-04T14:16:01.327Z,24.73
2023-05-04T14:17:01.245Z,25.71
2023-05-04T14:18:01.416Z,26.48
2023-05-04T14:19:01.307Z,26.35
2023-05-04T14:20:01.376Z,25.68
2023-05-04T14:21:02.354Z,25.43
2023-05-04T14:22:02.390Z,25.16
2023-05-04T14:23:01.339Z,25.06
2023-05-04T14:24:01.513Z,26.07
2023-05-04T14:25:02.509Z,26.30
2023-05-04T14:26:01.545Z,26.37
2023-05-04T14:27:02.565Z,26.79
2023-05-04T14:28:01.575Z,25.22
2023-05-04T14:29:01.559Z,25.70
2023-05-04T14:30:02.668Z,25.81
2023-05-04T14:31:01.721Z,25.72
2023-05-04T14:32:01.717Z,26.37
2023-05-04T14:33:02.828Z,26.10
2023-05-04T14:34:01.818Z,26.54
2023-05-04T14:35:01.806Z,26.63
2023-05-04T14:36:01.814Z,25.90
2023-05-04T14:37:01.920Z,24.72
2023-05-04T14:38:02.822Z,25.12
2023-05-04T14:39:02.835Z,25.02
2023-05-04T14:40:01.906Z,24.15
2023-05-04T14:41:03.027Z,25.19
2023-05-04T14:42:02.945Z,25.38
2023-05-04T14:43:02.969Z,25.53
2023-05-04T14:44:02.076Z,23.34
2023-05-04T14:45:01.959Z,23.64
2023-05-04T14:46:02.113Z,24.78
2023-05-04T14:47:02.051Z,24.09
2023-05-04T14:48:02.053Z,24.65
2023-05-04T14:49:02.101Z,24.83
2023-05-04T14:50:02.243Z,24.24
2023-05-04T14:51:02.165Z,24.78
2023-05-04T14:52:03.204Z,25.48
2023-05-04T14:53:02.236Z,26.07
2023-05-04T14:54:03.279Z,24.89
2023-05-04T14:55:02.297Z,24.53
2023-05-04T14:56:03.270Z,24.86
2023-05-04T14:57:02.291Z,26.21
2023-05-04T14:58:02.240Z,26.05
2023-05-04T14:59:03.378Z,25.62
2023-05-04T15:00:02.362Z,25.51
2023-05-04T15:01:02.388Z,25.20
2023-05-04T15:02:03.355Z,25.39
2023-05-04T15:03:02.510Z,26.34
2023-05-04T15:04:02.386Z,26.84
2023-05-04T15:05:02.407Z,26.51
2023-05-04T15:06:03.509Z,25.54
2023-05-04T15:07:03.572Z,25.71
2023-05-04T15:08:02.490Z,26.28
2023-05-04T15:09:02.584Z,25.36
2023-05-04T15:10:02.650Z,25.35
2023-05-04T15:11:02.669Z,25.23
2023-05-04T15:12:03.733Z,25.79
2023-05-04T15:13:02.700Z,25.61
2023-05-04T15:14:02.773Z,25.14
2023-05-04T15:15:02.684Z,25.16
2023-05-04T15:16:03.761Z,24.94
2023-05-04T15:17:03.789Z,25.25
2023-05-04T15:18:03.797Z,25.66
2023-05-04T15:19:02.793Z,26.36
2023-05-04T15:20:02.775Z,26.41
2023-05-04T15:21:03.828Z,26.44
2023-05-04T15:22:02.833Z,26.37
2023-05-04T15:23:03.871Z,26.02
2023-05-04T15:24:03.949Z,26.23
2023-05-04T15:25:03.899Z,26.50
2023-05-04T15:26:02.958Z,26.65
2023-05-04T15:27:03.935Z,26.18
2023-05-04T15:28:02.944Z,26.16
2023-05-04T15:29:03.059Z,25.86
2023-05-04T15:30:03.355Z,26.20
